Time;durP1;ratioP1;P1;durP2;ratioP2;P2;SDS_P1;SDS_P2;PMS_P1;PMS_P2;Temp;Humidity;BMP_temperature;BMP_pressure;BME280_temperature;BME280_humidity;BME280_pressure;Samples;Min_cycle;Max_cycle;Signal;HPM_P1;HPM_P2
2023/05/25 00:02:04;;;;;;;;;;;;;;;18.93;68.97;100058.09;4444505;32;34993;-81
2023/05/25 00:04:33;;;;;;;;;;;;;;;18.14;72.41;100058.50;4425157;32;33836;-81
2023/05/25 00:07:00;;;;;;;;;;;;;;;19.61;66.52;100061.63;4443357;32;34377;-80
2023/05/25 00:09:28;;;;;;;;;;;;;;;17.31;76.37;100059.44;4426990;32;32776;-81
2023/05/25 00:11:57;;;;;;;;;;;;;;;19.54;66.79;100057.16;4438096;32;33662;-81
2023/05/25 00:14:24;;;;;;;;;;;;;;;20.87;61.95;100056.75;4437848;32;33810;-81
2023/05/25 00:16:51;;;;;;;;;;;;;;;20.76;61.81;100067.19;4438519;32;34534;-80
2023/05/25 00:19:19;;;;;;;;;;;;;;;19.92;65.19;100067.28;4415259;32;33123;-81
2023/05/25 00:21:47;;;;;;;;;;;;;;;21.61;59.26;100047.50;4438680;32;34139;-81
2023/05/25 00:24:14;;;;;;;;;;;;;;;21.65;58.65;100054.53;4446127;32;33893;-81
2023/05/25 00:26:42;;;;;;;;;;;;;;;21.10;60.29;100056.91;4438702;32;34632;-81
2023/05/25 00:29:11;;;;;;;;;;;;;;;21.55;58.78;100050.13;4440918;32;33532;-81
2023/05/25 00:31:38;;;;;;;;;;;;;;;21.61;58.69;100052.78;4429807;32;33922;-80
2023/05/25 00:34:07;;;;;;;;;;;;;;;19.93;63.35;100046.22;4440603;32;33733;-80
2023/05/25 00:36:34;;;;;;;;;;;;;;;19.58;66.42;100058.94;4438459;32;33965;-81
2023/05/25 00:39:02;;;;;;;;;;;;;;;18.29;70.51;100057.84;4438627;32;33008;-81
2023/05/25 00:41:30;;;;;;;;;;;;;;;17.97;72.60;100066.03;4438405;32;34271;-80
2023/05/25 00:43:57;;;;;;;;;;;;;;;18.73;71.73;100069.97;4433214;32;33932;-82
2023/05/25 00:46:25;;;;;;;;;;;;;;;18.75;70.22;100068.25;4411426;32;34133;-81
2023/05/25 00:48:53;;;;;;;;;;;;;;;18.73;69.90;100064.72;4438472;32;33661;-81
2023/05/25 00:51:21;;;;;;;;;;;;;;;18.65;70.05;100075.97;4430224;32;33759;-81
2023/05/25 00:53:48;;;;;;;;;;;;;;;18.23;72.45;100079.66;4445532;32;34959;-81
2023/05/25 00:56:23;;;;;;;;;;;;;;;17.33;75.94;100076.06;4438011;32;34627;-81
2023/05/25 00:58:51;;;;;;;;;;;;;;;17.58;75.75;100072.22;4432844;32;33672;-81
2023/05/25 01:01:19;;;;;;;;;;;;;;;17.19;77.52;100077.47;4411684;32;32834;-80
2023/05/25 01:03:52;;;;;;;;;;;;;;;18.26;72.44;100079.69;4437999;32;34546;-80
2023/05/25 01:06:21;;;;;;;;;;;;;;;20.74;63.26;100074.19;4438421;32;34181;-80
2023/05/25 01:08:50;;;;;;;;;;;;;;;19.95;65.53;100076.09;4430640;32;34446;-81
2023/05/25 01:11:18;;;;;;;;;;;;;;;19.73;65.85;100080.19;4418466;32;34129;-81
2023/05/25 01:13:47;;;;;;;;;;;;;;;19.66;67.19;100078.31;4444361;32;33992;-80
2023/05/25 01:16:15;;;;;;;;;;;;;;;20.21;62.94;100084.22;4424580;32;33891;-81
2023/05/25 01:18:42;;;;;;;;;;;;;;;18.22;72.14;100083.09;4424229;32;34310;-81
2023/05/25 01:21:16;;;;;;;;;;;;;;;17.78;72.95;100090.97;4436814;32;34717;-80
2023/05/25 01:24:02;;;;;;;;;;;;;;;16.83;79.53;100094.09;4426123;32;34930;-81
2023/05/25 01:26:31;;;;;;;;;;;;;;;18.60;71.18;100090.78;4438071;32;34209;-81
2023/05/25 01:28:58;;;;;;;;;;;;;;;18.69;69.97;100081.28;4427402;32;34040;-81
2023/05/25 01:31:25;;;;;;;;;;;;;;;17.47;75.87;100085.09;4411230;32;32205;-81
2023/05/25 01:33:53;;;;;;;;;;;;;;;17.65;74.92;100083.69;4429034;32;34829;-80
2023/05/25 01:36:20;;;;;;;;;;;;;;;17.32;77.46;100092.59;4451002;32;33600;-81
2023/05/25 01:38:48;;;;;;;;;;;;;;;17.96;74.57;100092.22;4423780;32;31812;-80
2023/05/25 01:41:16;;;;;;;;;;;;;;;17.54;76.19;100090.44;4411767;32;33474;-80
2023/05/25 01:43:43;;;;;;;;;;;;;;;18.89;70.42;100093.03;4440387;32;33965;-81
2023/05/25 01:46:14;;;;;;;;;;;;;;;18.10;73.03;100092.47;4432711;32;33649;-81
2023/05/25 01:48:42;;;;;;;;;;;;;;;18.17;73.22;100095.22;4415323;32;33533;-81
2023/05/25 01:51:13;;;;;;;;;;;;;;;17.46;76.28;100095.53;4441452;32;33906;-81
2023/05/25 01:53:52;;;;;;;;;;;;;;;18.57;71.00;100097.69;4426382;32;34073;-81
2023/05/25 01:56:20;;;;;;;;;;;;;;;17.97;73.85;100096.62;4423604;32;34322;-81
2023/05/25 01:58:47;;;;;;;;;;;;;;;17.87;74.31;100099.03;4437124;32;33508;-81
2023/05/25 02:01:15;;;;;;;;;;;;;;;17.31;77.01;100101.31;4423614;32;33907;-81
2023/05/25 02:03:43;;;;;;;;;;;;;;;17.04;78.27;100110.31;4424324;32;34129;-81
2023/05/25 02:06:11;;;;;;;;;;;;;;;17.24;77.65;100115.13;4427466;32;35087;-81
2023/05/25 02:08:38;;;;;;;;;;;;;;;17.06;78.26;100108.63;4425604;32;33346;-81
2023/05/25 02:11:06;;;;;;;;;;;;;;;16.48;82.12;100107.16;4445282;32;33758;-81
2023/05/25 02:13:34;;;;;;;;;;;;;;;17.41;77.05;100100.66;4438716;32;34101;-81
2023/05/25 02:16:02;;;;;;;;;;;;;;;17.58;76.77;100097.53;4438335;32;34013;-81
2023/05/25 02:18:30;;;;;;;;;;;;;;;17.61;76.47;100100.22;4437940;32;33629;-81
2023/05/25 02:20:57;;;;;;;;;;;;;;;20.50;64.45;100102.03;4442074;32;34806;-81
2023/05/25 02:23:25;;;;;;;;;;;;;;;18.81;69.84;100107.75;4424232;32;33745;-81
2023/05/25 02:25:52;;;;;;;;;;;;;;;17.79;74.47;100103.22;4439834;32;34066;-81
2023/05/25 02:28:22;;;;;;;;;;;;;;;20.10;65.87;100101.63;4424487;32;32830;-81
2023/05/25 02:30:49;;;;;;;;;;;;;;;18.47;70.58;100105.41;4440701;32;34301;-81
2023/05/25 02:33:17;;;;;;;;;;;;;;;18.03;72.99;100107.22;4423432;32;34492;-81
2023/05/25 02:35:45;;;;;;;;;;;;;;;17.81;75.27;100117.25;4438896;32;35055;-81
2023/05/25 02:38:13;;;;;;;;;;;;;;;19.27;68.18;100111.06;4424465;32;33684;-81
2023/05/25 02:40:40;;;;;;;;;;;;;;;18.37;71.65;100113.06;4447565;32;34033;-80
2023/05/25 02:43:08;;;;;;;;;;;;;;;21.03;61.29;100106.00;4427418;32;34272;-81
2023/05/25 02:45:36;;;;;;;;;;;;;;;20.23;62.51;100106.16;4439064;32;34362;-81
2023/05/25 02:48:03;;;;;;;;;;;;;;;19.91;65.15;100115.44;4447144;32;33639;-81
2023/05/25 02:50:31;;;;;;;;;;;;;;;18.11;71.89;100115.22;4438257;32;34598;-81
2023/05/25 02:52:59;;;;;;;;;;;;;;;18.26;71.34;100119.00;4437395;32;34937;-81
2023/05/25 02:55:26;;;;;;;;;;;;;;;18.57;69.58;100111.69;4431349;32;32818;-81
2023/05/25 02:57:55;;;;;;;;;;;;;;;18.23;71.85;100116.34;4411934;32;32318;-82
2023/05/25 03:00:24;;;;;;;;;;;;;;;18.31;71.38;100123.44;4437249;32;34034;-81
2023/05/25 03:02:52;;;;;;;;;;;;;;;19.16;68.58;100125.78;4438681;32;33820;-81
2023/05/25 03:05:21;;;;;;;;;;;;;;;20.93;60.97;100128.75;4443443;32;34437;-82
2023/05/25 03:07:48;;;;;;;;;;;;;;;22.24;56.42;100125.97;4440131;32;33601;-80
2023/05/25 03:10:15;;;;;;;;;;;;;;;21.61;58.48;100123.94;4441868;32;34079;-81
2023/05/25 03:12:43;;;;;;;;;;;;;;;22.63;54.99;100124.28;4436972;32;34932;-81
2023/05/25 03:15:12;;;;;;;;;;;;;;;22.18;56.33;100127.69;4438193;32;34548;-81
2023/05/25 03:17:40;;;;;;;;;;;;;;;22.36;55.28;100131.28;4438007;32;33637;-81
2023/05/25 03:20:09;;;;;;;;;;;;;;;21.88;56.56;100135.50;4434089;32;33188;-81
2023/05/25 03:22:38;;;;;;;;;;;;;;;21.54;57.59;100138.00;4436456;32;33184;-81
2023/05/25 03:25:05;;;;;;;;;;;;;;;21.64;57.89;100134.53;4443460;32;35295;-81
2023/05/25 03:27:33;;;;;;;;;;;;;;;21.17;59.48;100138.63;4437177;32;33381;-81
2023/05/25 03:30:01;;;;;;;;;;;;;;;21.53;58.50;100137.09;4435400;32;33738;-81
2023/05/25 03:32:29;;;;;;;;;;;;;;;22.01;56.91;100129.41;4443269;32;33812;-81
2023/05/25 03:34:56;;;;;;;;;;;;;;;21.86;57.03;100121.44;4428894;32;33599;-80
2023/05/25 03:37:24;;;;;;;;;;;;;;;21.52;58.09;100134.47;4436509;32;33599;-81
2023/05/25 03:39:51;;;;;;;;;;;;;;;20.94;60.02;100134.94;4439618;32;33993;-81
2023/05/25 03:42:19;;;;;;;;;;;;;;;21.24;59.45;100142.16;4429399;32;34271;-81
2023/05/25 03:44:47;;;;;;;;;;;;;;;21.05;59.83;100143.78;4423362;32;35057;-81
2023/05/25 03:47:15;;;;;;;;;;;;;;;20.83;60.68;100133.97;4448169;32;31836;-81
2023/05/25 03:49:42;;;;;;;;;;;;;;;18.18;69.03;100138.97;4440657;32;33750;-81
2023/05/25 03:52:09;;;;;;;;;;;;;;;19.76;65.42;100139.78;4424598;32;32915;-81
2023/05/25 03:54:37;;;;;;;;;;;;;;;19.89;64.51;100146.09;4425381;32;34182;-80
2023/05/25 03:57:05;;;;;;;;;;;;;;;20.81;60.41;100147.09;4438347;32;33331;-81
2023/05/25 03:59:32;;;;;;;;;;;;;;;20.67;61.42;100151.34;4438405;32;34459;-80
2023/05/25 04:01:59;;;;;;;;;;;;;;;19.99;63.76;100153.22;4451010;32;34888;-80
2023/05/25 04:04:28;;;;;;;;;;;;;;;20.37;62.93;100152.78;4447364;32;35006;-81
2023/05/25 04:06:56;;;;;;;;;;;;;;;20.76;61.74;100156.69;4438334;32;32977;-81
2023/05/25 04:09:23;;;;;;;;;;;;;;;21.06;60.76;100155.22;4439698;32;33657;-82
2023/05/25 04:11:50;;;;;;;;;;;;;;;18.12;72.43;100159.81;4438644;32;33661;-82
2023/05/25 04:14:20;;;;;;;;;;;;;;;20.64;62.95;100157.47;4427148;32;32372;-82
2023/05/25 04:16:48;;;;;;;;;;;;;;;21.08;61.46;100164.00;4412666;32;31391;-81
2023/05/25 04:19:16;;;;;;;;;;;;;;;21.39;60.46;100160.69;4418518;32;33284;-80
2023/05/25 04:21:43;;;;;;;;;;;;;;;21.08;60.72;100166.63;4438213;32;33952;-81
2023/05/25 04:24:10;;;;;;;;;;;;;;;18.71;68.86;100168.78;4438121;32;33020;-82
2023/05/25 04:26:39;;;;;;;;;;;;;;;19.63;66.65;100167.62;4424390;32;32903;-81
2023/05/25 04:29:08;;;;;;;;;;;;;;;20.49;63.28;100173.06;4438124;32;34768;-81
2023/05/25 04:31:39;;;;;;;;;;;;;;;18.10;71.38;100181.59;4439661;32;34186;-82
2023/05/25 04:34:08;;;;;;;;;;;;;;;18.56;70.57;100177.25;4438557;32;34366;-81
2023/05/25 04:36:41;;;;;;;;;;;;;;;20.44;63.77;100173.03;4438920;32;33636;-81
2023/05/25 04:39:11;;;;;;;;;;;;;;;20.90;61.84;100185.78;4438702;32;34038;-82
2023/05/25 04:41:39;;;;;;;;;;;;;;;20.59;62.48;100178.50;4420328;32;32097;-80
2023/05/25 04:44:07;;;;;;;;;;;;;;;20.34;63.53;100171.16;4424582;32;34627;-81
2023/05/25 04:46:37;;;;;;;;;;;;;;;20.53;62.68;100173.13;4438596;32;32569;-81
2023/05/25 04:49:07;;;;;;;;;;;;;;;20.18;63.80;100170.97;4438515;32;34025;-80
2023/05/25 04:51:35;;;;;;;;;;;;;;;19.30;66.61;100174.16;4438330;32;34875;-80
2023/05/25 04:54:03;;;;;;;;;;;;;;;19.90;65.69;100176.78;4438083;32;34330;-81
2023/05/25 04:56:31;;;;;;;;;;;;;;;19.54;65.99;100172.75;4438564;32;32953;-81
2023/05/25 04:58:59;;;;;;;;;;;;;;;18.49;70.04;100171.03;4427400;32;33245;-80
2023/05/25 05:01:27;;;;;;;;;;;;;;;19.83;66.93;100175.81;4443270;32;34127;-81
2023/05/25 05:03:55;;;;;;;;;;;;;;;19.60;67.14;100180.72;4438205;32;34477;-80
2023/05/25 05:06:24;;;;;;;;;;;;;;;19.56;67.26;100181.53;4435044;32;33320;-81
2023/05/25 05:08:52;;;;;;;;;;;;;;;19.03;68.29;100180.75;4438168;32;33339;-80
2023/05/25 05:11:20;;;;;;;;;;;;;;;18.07;72.86;100185.06;4438103;32;34286;-81
2023/05/25 05:13:48;;;;;;;;;;;;;;;19.77;66.58;100184.50;4440970;32;35138;-81
2023/05/25 05:16:16;;;;;;;;;;;;;;;20.31;64.94;100173.78;4445292;32;33461;-81
2023/05/25 05:18:43;;;;;;;;;;;;;;;19.77;66.70;100184.50;4425696;32;33597;-81
2023/05/25 05:21:11;;;;;;;;;;;;;;;18.11;74.85;100194.75;4409824;32;34051;-81
2023/05/25 05:23:38;;;;;;;;;;;;;;;18.24;74.73;100194.16;4438221;32;35249;-80
2023/05/25 05:26:09;;;;;;;;;;;;;;;19.26;69.96;100188.12;4438146;32;33774;-81
2023/05/25 05:28:37;;;;;;;;;;;;;;;19.12;70.74;100189.63;4440613;32;33957;-81
2023/05/25 05:31:05;;;;;;;;;;;;;;;18.91;71.92;100191.06;4431654;32;34124;-81
2023/05/25 05:33:33;;;;;;;;;;;;;;;19.56;68.67;100192.06;4438210;32;34323;-81
2023/05/25 05:36:02;;;;;;;;;;;;;;;19.31;70.00;100186.41;4436515;32;33574;-81
2023/05/25 05:38:30;;;;;;;;;;;;;;;18.31;74.97;100189.00;4423141;32;33068;-81
2023/05/25 05:40:57;;;;;;;;;;;;;;;19.50;70.45;100192.84;4432674;32;33905;-81
2023/05/25 05:43:25;;;;;;;;;;;;;;;20.09;67.31;100186.69;4438023;32;34370;-81
2023/05/25 05:45:52;;;;;;;;;;;;;;;20.30;65.66;100193.03;4444377;32;33664;-80
2023/05/25 05:48:20;;;;;;;;;;;;;;;20.26;66.37;100201.75;4427160;32;34124;-81
2023/05/25 05:50:51;;;;;;;;;;;;;;;19.72;68.29;100198.44;4424733;32;33879;-81
2023/05/25 05:53:19;;;;;;;;;;;;;;;20.98;63.39;100195.53;4437419;32;33379;-80
2023/05/25 05:55:47;;;;;;;;;;;;;;;21.42;62.18;100196.72;4424609;32;32246;-82
2023/05/25 05:58:19;;;;;;;;;;;;;;;18.20;74.95;100204.56;4436893;32;34320;-81
2023/05/25 06:00:46;;;;;;;;;;;;;;;19.34;71.23;100202.25;4437711;32;34467;-80
2023/05/25 06:03:14;;;;;;;;;;;;;;;20.30;67.00;100193.94;4447708;32;34656;-81
2023/05/25 06:05:41;;;;;;;;;;;;;;;20.37;65.46;100200.13;4439965;32;33102;-80
2023/05/25 06:08:10;;;;;;;;;;;;;;;20.30;66.60;100203.56;4442022;32;34007;-79
2023/05/25 06:10:38;;;;;;;;;;;;;;;19.69;68.36;100215.03;4436966;32;34076;-82
2023/05/25 06:13:08;;;;;;;;;;;;;;;20.95;65.24;100211.28;4437923;32;35379;-80
2023/05/25 06:15:36;;;;;;;;;;;;;;;21.02;64.08;100222.78;4437389;32;32884;-81
2023/05/25 06:18:05;;;;;;;;;;;;;;;20.70;66.60;100214.56;4437678;32;34936;-81
2023/05/25 06:20:34;;;;;;;;;;;;;;;21.69;62.67;100222.44;4437156;32;34208;-81
2023/05/25 06:23:01;;;;;;;;;;;;;;;20.78;64.68;100223.41;4431022;32;35046;-81
2023/05/25 06:25:29;;;;;;;;;;;;;;;20.93;65.69;100217.41;4438165;32;33615;-81
2023/05/25 06:27:57;;;;;;;;;;;;;;;20.08;68.92;100221.72;4440677;32;35027;-81
2023/05/25 06:30:25;;;;;;;;;;;;;;;20.44;67.96;100217.78;4424874;32;32603;-80
2023/05/25 06:32:53;;;;;;;;;;;;;;;21.51;64.32;100217.03;4429406;32;35064;-80
2023/05/25 06:35:21;;;;;;;;;;;;;;;22.04;61.90;100221.75;4446120;32;34285;-80
2023/05/25 06:37:49;;;;;;;;;;;;;;;18.89;72.33;100219.00;4424813;32;33006;-80
2023/05/25 06:40:19;;;;;;;;;;;;;;;21.29;65.65;100218.62;4436737;32;33185;-78
2023/05/25 06:42:47;;;;;;;;;;;;;;;21.02;64.89;100218.38;4426786;32;33921;-79
2023/05/25 06:45:22;;;;;;;;;;;;;;;19.95;68.87;100222.41;4423059;32;33529;-81
2023/05/25 06:47:50;;;;;;;;;;;;;;;20.43;68.47;100218.62;4438087;32;33916;-81
2023/05/25 06:50:17;;;;;;;;;;;;;;;21.26;65.75;100226.47;4421192;32;34111;-81
2023/05/25 06:52:45;;;;;;;;;;;;;;;21.43;64.75;100223.97;4440564;32;34513;-80
2023/05/25 06:55:12;;;;;;;;;;;;;;;21.38;64.79;100227.47;4421201;32;34218;-79
2023/05/25 06:57:40;;;;;;;;;;;;;;;21.79;62.92;100224.25;4418618;32;34171;-80
2023/05/25 07:00:10;;;;;;;;;;;;;;;19.08;73.52;100235.06;4422544;32;33084;-80
2023/05/25 07:02:38;;;;;;;;;;;;;;;20.47;70.27;100228.31;4420409;32;34165;-80
2023/05/25 07:05:06;;;;;;;;;;;;;;;20.86;67.22;100232.28;4426554;32;32581;-80
2023/05/25 07:07:34;;;;;;;;;;;;;;;22.10;63.58;100224.41;4419406;32;34191;-80
2023/05/25 07:10:02;;;;;;;;;;;;;;;21.99;63.69;100236.66;4415245;32;34541;-80
2023/05/25 07:12:30;;;;;;;;;;;;;;;19.81;71.27;100236.25;4420411;32;34321;-81
2023/05/25 07:14:57;;;;;;;;;;;;;;;20.97;67.42;100235.88;4421699;32;33697;-80
2023/05/25 07:17:25;;;;;;;;;;;;;;;22.71;61.41;100222.88;4424559;32;32989;-80
2023/05/25 07:19:53;;;;;;;;;;;;;;;21.48;65.71;100238.09;4413716;32;34390;-81
2023/05/25 07:22:22;;;;;;;;;;;;;;;21.95;62.99;100240.16;4430505;32;33048;-78
2023/05/25 07:24:49;;;;;;;;;;;;;;;23.82;58.37;100233.50;4426483;32;33522;-80
2023/05/25 07:27:18;;;;;;;14.73;8.73;;;;;;;23.26;60.56;100233.53;4422281;32;35066;-83
2023/05/25 07:29:46;;;;;;;13.05;9.50;;;;;;;25.27;53.87;100228.34;4423471;32;33873;-81
2023/05/25 07:32:13;;;;;;;16.92;8.52;;;;;;;25.80;52.19;100223.41;4422833;32;33629;-81
2023/05/25 07:34:41;;;;;;;;;;;;;;;26.79;50.18;100221.31;4429904;32;32711;-81
2023/05/25 07:37:08;;;;;;;;;;;;;;;25.11;53.70;100225.78;4431177;32;34019;-80
2023/05/25 07:39:36;;;;;;;;;;;;;;;25.60;52.41;100232.44;4422572;32;33781;-79
2023/05/25 07:42:03;;;;;;;;;;;;;;;25.17;52.28;100232.81;4434015;32;32856;-79
2023/05/25 07:44:31;;;;;;;;;;;;;;;27.41;47.59;100228.28;4419551;32;33369;-79
2023/05/25 07:46:58;;;;;;;;;;;;;;;26.41;50.40;100230.66;4421965;32;31922;-80
2023/05/25 07:49:26;;;;;;;;;;;;;;;25.14;53.77;100232.81;4433747;32;32020;-79
2023/05/25 07:51:53;;;;;;;;;;;;;;;26.35;50.38;100228.09;4417118;32;33981;-79
2023/05/25 07:54:20;;;;;;;;;;;;;;;25.05;53.62;100236.44;4443706;32;33227;-79
2023/05/25 07:56:48;;;;;;;;;;;;;;;26.15;51.14;100224.78;4439503;32;34159;-79
2023/05/25 07:59:15;;;;;;;;;;;;;;;25.06;53.00;100235.53;4441113;32;34933;-81
2023/05/25 08:01:43;;;;;;;;;;;;;;;23.59;58.62;100237.03;4436830;32;34559;-80
2023/05/25 08:04:11;;;;;;;;;;;;;;;24.32;57.02;100224.50;4427087;32;33961;-81
2023/05/25 08:06:38;;;;;;;;;;;;;;;24.39;57.29;100231.50;4428167;32;33787;-78
2023/05/25 08:09:06;;;;;;;;;;;;;;;26.33;50.55;100231.62;4421682;32;33947;-79
2023/05/25 08:11:36;;;;;;;;;;;;;;;25.19;51.48;100228.38;4426146;32;35160;-78
2023/05/25 08:14:03;;;;;;;;;;;;;;;24.86;52.87;100241.00;4436150;32;33982;-80
2023/05/25 08:16:30;;;;;;;;;;;;;;;26.64;48.84;100221.53;4439005;32;34256;-81
2023/05/25 08:19:00;;;;;;;;;;;;;;;28.11;45.77;100228.78;4436876;32;35114;-81
2023/05/25 08:21:28;;;;;;;;;;;;;;;27.03;47.44;100237.75;4424592;32;32679;-81
2023/05/25 08:23:55;;;;;;;;;;;;;;;24.31;54.59;100238.59;4437767;32;33896;-81
2023/05/25 08:26:23;;;;;;;;;;;;;;;25.36;53.46;100243.28;4433193;32;34253;-82
2023/05/25 08:29:10;;;;;;;;;;;;;;;27.44;46.72;100238.88;4436939;32;33909;-80
2023/05/25 08:31:38;;;;;;;;;;;;;;;27.95;44.87;100241.53;4424322;32;34104;-80
2023/05/25 08:34:05;;;;;;;;;;;;;;;25.77;52.21;100245.56;4436348;32;35455;-81
2023/05/25 08:36:34;;;;;;;;;;;;;;;25.72;49.99;100241.19;4437329;32;34239;-80
2023/05/25 08:39:03;;;;;;;;;;;;;;;24.78;53.51;100239.25;4437667;32;33417;-79
2023/05/25 08:41:31;;;;;;;;;;;;;;;25.90;51.23;100240.97;4438106;32;34288;-79
2023/05/25 08:44:04;;;;;;;;;;;;;;;25.65;50.94;100241.25;4423999;32;33775;-78
2023/05/25 08:46:32;;;;;;;;;;;;;;;26.39;48.84;100240.41;4425441;32;33749;-79
2023/05/25 08:49:12;;;;;;;;;;;;;;;26.88;47.92;100237.09;4438195;32;34592;-81
2023/05/25 08:51:46;;;;;;;;;;;;;;;24.31;56.11;100241.25;4436945;32;34853;-80
2023/05/25 08:54:16;;;;;;;;;;;;;;;26.48;49.52;100245.62;4437482;32;33195;-81
2023/05/25 08:56:47;;;;;;;;;;;;;;;24.31;55.91;100238.59;4426764;32;34105;-78
2023/05/25 08:59:17;;;;;;;;;;;;;;;26.34;51.21;100236.06;4424450;32;34559;-82
2023/05/25 09:01:45;;;;;;;;;;;;;;;25.07;53.06;100233.75;4423570;32;33482;-81
2023/05/25 09:04:13;;;;;;;;;;;;;;;23.57;56.51;100241.44;4437172;32;34342;-80
2023/05/25 09:06:41;;;;;;;;;;;;;;;26.54;48.89;100234.03;4416540;32;34066;-80
2023/05/25 09:09:09;;;;;;;;;;;;;;;27.35;47.44;100233.72;4437936;32;35115;-80
2023/05/25 09:11:38;;;;;;;;;;;;;;;27.40;45.62;100226.53;4426205;32;34222;-80
2023/05/25 09:14:09;;;;;;;;;;;;;;;28.05;43.90;100231.56;4422846;32;32400;-78
2023/05/25 09:16:37;;;;;;;;;;;;;;;25.27;51.08;100229.22;4425608;32;34209;-79
2023/05/25 09:19:04;;;;;;;;;;;;;;;26.18;49.34;100230.94;4448390;32;34255;-80
2023/05/25 09:21:32;;;;;;;;;;;;;;;27.22;47.62;100227.72;4437359;32;33557;-78
2023/05/25 09:24:00;;;;;;;;;;;;;;;28.06;44.76;100222.66;4411043;32;31979;-80
2023/05/25 09:26:27;;;;;;;;;;;;;;;27.02;49.12;100230.69;4423557;32;33530;-79
2023/05/25 09:28:55;;;;;;;;;;;;;;;26.57;48.22;100235.75;4436268;32;34912;-81
2023/05/25 09:31:23;;;;;;;;;;;;;;;24.85;51.51;100239.22;4430324;32;34967;-78
2023/05/25 09:33:54;;;;;;;;;;;;;;;27.10;47.87;100233.22;4437353;32;33677;-79
2023/05/25 09:36:21;;;;;;;;;;;;;;;26.49;49.13;100230.56;4427877;32;34702;-78
2023/05/25 09:38:51;;;;;;;;;;;;;;;26.29;47.46;100230.81;4433017;32;32750;-81
2023/05/25 09:41:19;;;;;;;;;;;;;;;27.57;45.28;100232.44;4426186;32;34442;-80
2023/05/25 09:43:48;;;;;;;;;;;;;;;28.26;43.02;100230.25;4439019;32;33847;-79
2023/05/25 09:46:21;;;;;;;;;;;;;;;27.09;45.50;100235.00;4441242;32;34453;-81
2023/05/25 09:48:50;;;;;;;;;;;;;;;27.97;43.78;100244.13;4440418;32;33341;-81
2023/05/25 09:51:17;;;;;;;;;;;;;;;27.05;46.42;100235.97;4418152;32;34857;-81
2023/05/25 09:53:45;;;;;;;;;;;;;;;26.65;48.86;100231.25;4430581;32;33247;-82
2023/05/25 09:56:12;;;;;;;;;;;;;;;28.53;44.76;100227.91;4424484;32;33636;-81
2023/05/25 09:58:40;;;;;;;;;;;;;;;28.69;42.29;100234.66;4424703;32;34097;-81
2023/05/25 10:01:08;;;;;;;;;;;;;;;27.76;44.04;100234.78;4425782;32;33047;-81
2023/05/25 10:03:41;;;;;;;;;;;;;;;28.00;43.57;100239.63;4421935;32;33847;-81
2023/05/25 10:06:18;;;;;;;;;;;;;;;26.91;44.84;100229.97;4421865;32;34684;-81
2023/05/25 10:08:46;;;;;;;;;;;;;;;26.91;46.22;100237.94;4439612;32;34934;-82
2023/05/25 10:11:14;;;;;;;;;;;;;;;27.11;44.31;100235.84;4410904;32;33427;-86
2023/05/25 10:13:43;;;;;;;;;;;;;;;25.98;49.44;100233.84;4442019;32;33295;-83
2023/05/25 10:16:17;;;;;;;;;;;;;;;26.56;47.04;100226.91;4437137;32;34573;-81
2023/05/25 10:18:54;;;;;;;;;;;;;;;27.28;45.84;100235.62;4422434;32;33999;-76
2023/05/25 10:21:22;;;;;;;;;;;;;;;27.62;45.26;100235.00;4433979;32;33821;-78
2023/05/25 10:23:50;;;;;;;;;;;;;;;26.64;48.12;100233.03;4435031;32;34316;-79
2023/05/25 10:26:18;;;;;;;;;;;;;;;28.22;45.90;100225.88;4421584;32;34910;-80
2023/05/25 10:28:49;;;;;;;;;;;;;;;27.55;44.93;100220.94;4428074;32;33636;-79
2023/05/25 10:31:17;;;;;;;;;;;;;;;27.85;43.07;100224.81;4438042;32;33486;-78
2023/05/25 10:33:45;;;;;;;;;;;;;;;28.34;41.98;100217.63;4423704;32;33515;-79
2023/05/25 10:36:18;;;;;;;;;;;;;;;27.28;44.12;100210.81;4424022;32;34521;-78
2023/05/25 10:38:46;;;;;;;;;;;;;;;27.75;43.59;100212.56;4424001;32;34039;-79
2023/05/25 10:41:14;;;;;;;;;;;;;;;27.18;45.07;100205.59;4423868;32;34363;-79
2023/05/25 10:43:42;;;;;;;;;;;;;;;27.23;44.40;100214.38;4439601;32;32939;-80
2023/05/25 10:46:11;;;;;;;;;;;;;;;28.24;41.70;100208.09;4445230;32;33667;-82
2023/05/25 10:48:39;;;;;;;;;;;;;;;27.71;43.64;100210.00;4421672;32;32877;-80
2023/05/25 10:51:07;;;;;;;;;;;;;;;28.74;40.26;100214.09;4446006;32;34037;-78
2023/05/25 10:53:38;;;;;;;;;;;;;;;30.25;38.62;100211.94;4437008;32;33502;-79
2023/05/25 10:56:07;;;;;;;;;;;;;;;30.27;37.54;100205.63;4437390;32;34369;-79
2023/05/25 10:58:35;;;;;;;;;;;;;;;28.94;40.29;100202.94;4431615;32;34104;-81
2023/05/25 11:01:06;;;;;;;;;;;;;;;29.28;39.47;100206.59;4431547;32;33954;-78
2023/05/25 11:03:42;;;;;;;;;;;;;;;28.17;41.03;100204.66;4432897;32;33680;-81
2023/05/25 11:06:11;;;;;;;;;;;;;;;29.03;39.40;100204.50;4437897;32;34238;-79
2023/05/25 11:08:47;;;;;;;;;;;;;;;29.09;39.67;100204.38;4437873;32;34982;-79
2023/05/25 11:11:14;;;;;;;;;;;;;;;29.37;39.57;100195.69;4433743;32;35090;-78
2023/05/25 11:13:45;;;;;;;;;;;;;;;28.43;42.46;100196.13;4438937;32;33625;-79
2023/05/25 11:16:19;;;;;;;;;;;;;;;28.48;42.85;100193.34;4439927;32;34061;-79
2023/05/25 11:18:57;;;;;;;;;;;;;;;29.16;38.85;100197.97;4428154;32;34082;-78
2023/05/25 11:21:29;;;;;;;;;;;;;;;29.27;39.61;100194.19;4432843;32;34005;-80
2023/05/25 11:24:05;;;;;;;;;;;;;;;28.75;39.34;100186.53;4446116;32;33291;-79
2023/05/25 11:26:33;;;;;;;;;;;;;;;28.41;41.58;100184.62;4424979;32;32692;-81
2023/05/25 11:29:01;;;;;;;;;;;;;;;28.23;43.64;100182.34;4425393;32;34073;-79
2023/05/25 11:31:32;;;;;;;;;;;;;;;29.23;40.03;100181.84;4424077;32;32803;-81
2023/05/25 11:34:06;;;;;;;;;;;;;;;28.71;41.42;100184.84;4423262;32;33675;-82
2023/05/25 11:36:34;;;;;;;;;;;;;;;27.75;42.93;100169.13;4437846;32;34229;-82
2023/05/25 11:39:05;;;;;;;;;;;;;;;29.20;40.87;100172.09;4429874;32;33558;-83
2023/05/25 11:41:50;;;;;;;;;;;;;;;28.15;41.93;100173.66;4428668;32;34971;-85
2023/05/25 11:44:25;;;;;;;;;;;;;;;29.24;40.10;100168.44;4426683;32;34072;-83
2023/05/25 11:46:55;;;;;;;;;;;;;;;28.14;40.16;100172.75;4451447;32;34563;-87
2023/05/25 11:49:24;;;;;;;;;;;;;;;27.72;42.51;100169.16;4437241;32;34723;-83
2023/05/25 11:51:53;;;;;;;;;;;;;;;28.18;43.40;100162.91;4421207;32;33983;-83
2023/05/25 11:54:24;;;;;;;;;;;;;;;29.33;39.28;100151.31;4408253;32;33354;-83
2023/05/25 11:56:51;;;;;;;;;;;;;;;28.03;41.55;100142.84;4421098;32;33927;-82
2023/05/25 11:59:19;;;;;;;;;;;;;;;29.25;39.16;100153.31;4415418;32;33968;-84
2023/05/25 12:01:56;;;;;;;;;;;;;;;28.81;40.89;100149.03;4420187;32;34051;-80
2023/05/25 12:04:24;;;;;;;;;;;;;;;28.39;41.05;100143.78;4417953;32;33483;-83
2023/05/25 12:06:51;;;;;;;;;;;;;;;29.19;41.33;100147.22;4415496;32;33885;-81
2023/05/25 12:09:22;;;;;;;;;;;;;;;27.85;42.88;100141.41;4412755;32;33770;-85
2023/05/25 12:11:49;;;;;;;;;;;;;;;27.36;45.44;100139.72;4415689;32;32998;-84
2023/05/25 12:14:17;;;;;;;;;;;;;;;28.18;42.25;100136.28;4415042;32;33215;-84
2023/05/25 12:16:44;;;;;;;;;;;;;;;29.03;40.01;100137.81;4416568;32;35091;-82
2023/05/25 12:19:12;;;;;;;;;;;;;;;27.20;43.41;100139.09;4413267;32;31938;-82
2023/05/25 12:21:39;;;;;;;;;;;;;;;28.71;41.42;100136.88;4415894;32;35201;-81
2023/05/25 12:24:08;;;;;;;;;;;;;;;28.57;39.41;100133.66;4413273;32;33273;-83
2023/05/25 12:26:45;;;;;;;;;;;;;;;28.99;40.76;100136.16;4407485;32;33901;-82
2023/05/25 12:29:12;;;;;;;;;;;;;;;28.65;40.13;100131.69;4419617;32;34917;-82
2023/05/25 12:31:40;;;;;;;;;;;;;;;26.58;44.95;100134.78;4418393;32;34494;-82
2023/05/25 12:34:08;;;;;;;;;;;;;;;28.56;41.03;100137.22;4417016;32;33590;-82
2023/05/25 12:36:44;;;;;;;;;;;;;;;26.91;44.08;100132.50;4420504;32;34099;-83
2023/05/25 12:39:12;;;;;;;;;;;;;;;27.82;42.38;100128.16;4420405;32;33933;-83
2023/05/25 12:41:52;;;;;;;;;;;;;;;28.71;41.78;100128.87;4408291;32;34761;-81
2023/05/25 12:44:22;;;;;;;;;;;;;;;28.75;40.13;100122.53;4416531;32;33669;-84